sensor_id;sensor_type;location;lat;lon;timestamp;pressure;altitude;pressure_sealevel;temperature
15544;BMP180;7873;52.230;12.856;2023-03-31T00:01:42;99788.44;;;26.08
15544;BMP180;7873;52.230;12.856;2023-03-31T00:04:09;99787.03;;;26.05
15544;BMP180;7873;52.230;12.856;2023-03-31T00:06:39;99799.91;;;26.03
15544;BMP180;7873;52.230;12.856;2023-03-31T00:09:08;99786.63;;;26.02
15544;BMP180;7873;52.230;12.856;2023-03-31T00:11:35;99780.00;;;25.98
15544;BMP180;7873;52.230;12.856;2023-03-31T00:14:03;99772.38;;;25.95
15544;BMP180;7873;52.230;12.856;2023-03-31T00:16:32;99778.56;;;25.95
15544;BMP180;7873;52.230;12.856;2023-03-31T00:18:59;99781.25;;;25.95
15544;BMP180;7873;52.230;12.856;2023-03-31T00:21:27;99781.94;;;25.91
15544;BMP180;7873;52.230;12.856;2023-03-31T00:23:59;99776.56;;;25.91
15544;BMP180;7873;52.230;12.856;2023-03-31T00:26:27;99778.63;;;25.89
15544;BMP180;7873;52.230;12.856;2023-03-31T00:28:54;99772.59;;;25.87
15544;BMP180;7873;52.230;12.856;2023-03-31T00:31:21;99773.06;;;25.84
15544;BMP180;7873;52.230;12.856;2023-03-31T00:33:50;99775.31;;;25.87
15544;BMP180;7873;52.230;12.856;2023-03-31T00:36:16;99770.34;;;25.84
15544;BMP180;7873;52.230;12.856;2023-03-31T00:38:46;99765.97;;;25.83
15544;BMP180;7873;52.230;12.856;2023-03-31T00:41:13;99767.25;;;25.80
15544;BMP180;7873;52.230;12.856;2023-03-31T00:43:40;99765.59;;;25.79
15544;BMP180;7873;52.230;12.856;2023-03-31T00:46:12;99762.31;;;25.77
15544;BMP180;7873;52.230;12.856;2023-03-31T00:48:46;99767.69;;;25.77
15544;BMP180;7873;52.230;12.856;2023-03-31T00:51:17;99761.91;;;25.74
15544;BMP180;7873;52.230;12.856;2023-03-31T00:53:49;99755.91;;;25.72
15544;BMP180;7873;52.230;12.856;2023-03-31T00:56:20;99757.16;;;25.69
15544;BMP180;7873;52.230;12.856;2023-03-31T00:58:47;99755.50;;;25.68
15544;BMP180;7873;52.230;12.856;2023-03-31T01:01:17;99753.84;;;25.67
15544;BMP180;7873;52.230;12.856;2023-03-31T01:03:45;99744.94;;;25.67
15544;BMP180;7873;52.230;12.856;2023-03-31T01:06:13;99741.41;;;25.66
15544;BMP180;7873;52.230;12.856;2023-03-31T01:08:46;99735.22;;;25.66
15544;BMP180;7873;52.230;12.856;2023-03-31T01:11:15;99731.88;;;25.64
15544;BMP180;7873;52.230;12.856;2023-03-31T01:13:43;99733.56;;;25.65
15544;BMP180;7873;52.230;12.856;2023-03-31T01:16:15;99721.94;;;25.64
15544;BMP180;7873;52.230;12.856;2023-03-31T01:18:41;99723.19;;;25.62
15544;BMP180;7873;52.230;12.856;2023-03-31T01:24:43;99715.94;;;25.62
15544;BMP180;7873;52.230;12.856;2023-03-31T01:27:36;99708.03;;;25.61
15544;BMP180;7873;52.230;12.856;2023-03-31T01:30:32;99714.28;;;25.61
15544;BMP180;7873;52.230;12.856;2023-03-31T01:33:30;99704.75;;;25.59
15544;BMP180;7873;52.230;12.856;2023-03-31T01:36:35;99693.75;;;25.60
15544;BMP180;7873;52.230;12.856;2023-03-31T01:42:24;99686.56;;;25.55
15544;BMP180;7873;52.230;12.856;2023-03-31T01:44:58;99680.94;;;25.56
15544;BMP180;7873;52.230;12.856;2023-03-31T01:47:30;99679.28;;;25.55
15544;BMP180;7873;52.230;12.856;2023-03-31T01:50:03;99677.03;;;25.52
15544;BMP180;7873;52.230;12.856;2023-03-31T01:52:37;99671.63;;;25.52
15544;BMP180;7873;52.230;12.856;2023-03-31T01:55:08;99678.66;;;25.53
15544;BMP180;7873;52.230;12.856;2023-03-31T01:57:44;99669.13;;;25.51
15544;BMP180;7873;52.230;12.856;2023-03-31T02:00:14;99661.06;;;25.51
15544;BMP180;7873;52.230;12.856;2023-03-31T02:02:47;99662.34;;;25.48
15544;BMP180;7873;52.230;12.856;2023-03-31T02:05:17;99662.34;;;25.48
15544;BMP180;7873;52.230;12.856;2023-03-31T02:07:48;99660.44;;;25.49
15544;BMP180;7873;52.230;12.856;2023-03-31T02:10:18;99652.59;;;25.47
15544;BMP180;7873;52.230;12.856;2023-03-31T02:12:47;99652.59;;;25.47
15544;BMP180;7873;52.230;12.856;2023-03-31T02:15:20;99650.09;;;25.46
15544;BMP180;7873;52.230;12.856;2023-03-31T02:17:48;99640.59;;;25.43
15544;BMP180;7873;52.230;12.856;2023-03-31T02:20:19;99653.69;;;25.40
15544;BMP180;7873;52.230;12.856;2023-03-31T02:22:49;99642.31;;;25.38
15544;BMP180;7873;52.230;12.856;2023-03-31T02:25:19;99634.66;;;25.35
15544;BMP180;7873;52.230;12.856;2023-03-31T02:27:52;99631.34;;;25.33
15544;BMP180;7873;52.230;12.856;2023-03-31T02:30:21;99641.53;;;25.31
15544;BMP180;7873;52.230;12.856;2023-03-31T02:32:47;99630.56;;;25.26
15544;BMP180;7873;52.230;12.856;2023-03-31T02:35:16;99629.50;;;25.27
15544;BMP180;7873;52.230;12.856;2023-03-31T02:37:45;99624.97;;;25.27
15544;BMP180;7873;52.230;12.856;2023-03-31T02:40:17;99627.22;;;25.30
15544;BMP180;7873;52.230;12.856;2023-03-31T02:42:44;99622.25;;;25.27
15544;BMP180;7873;52.230;12.856;2023-03-31T02:45:42;99621.06;;;25.23
15544;BMP180;7873;52.230;12.856;2023-03-31T02:48:11;99617.34;;;25.18
15544;BMP180;7873;52.230;12.856;2023-03-31T02:53:41;99609.44;;;25.16
15544;BMP180;7873;52.230;12.856;2023-03-31T02:56:24;99606.16;;;25.14
15544;BMP180;7873;52.230;12.856;2023-03-31T02:59:05;99602.63;;;25.14
15544;BMP180;7873;52.230;12.856;2023-03-31T03:01:42;99603.09;;;25.11
15544;BMP180;7873;52.230;12.856;2023-03-31T03:04:28;99597.09;;;25.09
15544;BMP180;7873;52.230;12.856;2023-03-31T03:07:05;99596.25;;;25.08
15544;BMP180;7873;52.230;12.856;2023-03-31T03:09:39;99583.63;;;25.09
15544;BMP180;7873;52.230;12.856;2023-03-31T03:12:13;99587.34;;;25.08
15544;BMP180;7873;52.230;12.856;2023-03-31T03:14:45;99582.16;;;25.06
15544;BMP180;7873;52.230;12.856;2023-03-31T03:17:19;99582.63;;;25.03
15544;BMP180;7873;52.230;12.856;2023-03-31T03:19:51;99589.03;;;25.02
15544;BMP180;7873;52.230;12.856;2023-03-31T03:22:19;99583.84;;;25.01
15544;BMP180;7873;52.230;12.856;2023-03-31T03:24:46;99585.94;;;24.99
15544;BMP180;7873;52.230;12.856;2023-03-31T03:27:12;99578.91;;;24.98
15544;BMP180;7873;52.230;12.856;2023-03-31T03:29:39;99579.97;;;24.97
15544;BMP180;7873;52.230;12.856;2023-03-31T03:32:07;99579.16;;;24.96
15544;BMP180;7873;52.230;12.856;2023-03-31T03:34:36;99570.44;;;24.94
15544;BMP180;7873;52.230;12.856;2023-03-31T03:37:02;99569.81;;;24.92
15544;BMP180;7873;52.230;12.856;2023-03-31T03:39:30;99567.53;;;24.96
15544;BMP180;7873;52.230;12.856;2023-03-31T03:41:56;99566.28;;;24.98
15544;BMP180;7873;52.230;12.856;2023-03-31T03:44:23;99560.66;;;25.00
15544;BMP180;7873;52.230;12.856;2023-03-31T03:46:50;99561.50;;;25.00
15544;BMP180;7873;52.230;12.856;2023-03-31T03:49:16;99558.69;;;24.89
15544;BMP180;7873;52.230;12.856;2023-03-31T03:51:45;99559.47;;;24.96
15544;BMP180;7873;52.230;12.856;2023-03-31T03:54:11;99565.25;;;24.99
15544;BMP180;7873;52.230;12.856;2023-03-31T03:56:38;99559.00;;;24.99
15544;BMP180;7873;52.230;12.856;2023-03-31T03:59:05;99558.66;;;24.95
15544;BMP180;7873;52.230;12.856;2023-03-31T04:01:31;99545.34;;;25.00
15544;BMP180;7873;52.230;12.856;2023-03-31T04:03:58;99538.56;;;24.91
15544;BMP180;7873;52.230;12.856;2023-03-31T04:06:25;99534.63;;;24.94
15544;BMP180;7873;52.230;12.856;2023-03-31T04:08:53;99539.78;;;24.95
15544;BMP180;7873;52.230;12.856;2023-03-31T04:11:20;99527.34;;;24.94
15544;BMP180;7873;52.230;12.856;2023-03-31T04:13:47;99523.81;;;25.00
15544;BMP180;7873;52.230;12.856;2023-03-31T04:16:14;99523.19;;;24.98
15544;BMP180;7873;52.230;12.856;2023-03-31T04:18:41;99529.78;;;25.02
15544;BMP180;7873;52.230;12.856;2023-03-31T04:21:08;99522.06;;;25.06
15544;BMP180;7873;52.230;12.856;2023-03-31T04:23:38;99520.03;;;25.08
15544;BMP180;7873;52.230;12.856;2023-03-31T04:26:08;99519.81;;;25.03
15544;BMP180;7873;52.230;12.856;2023-03-31T04:28:35;99514.88;;;25.00
15544;BMP180;7873;52.230;12.856;2023-03-31T04:31:03;99514.88;;;25.00
15544;BMP180;7873;52.230;12.856;2023-03-31T04:33:30;99510.59;;;24.92
15544;BMP180;7873;52.230;12.856;2023-03-31T04:35:58;99501.53;;;24.87
15544;BMP180;7873;52.230;12.856;2023-03-31T04:38:31;99502.56;;;24.86
15544;BMP180;7873;52.230;12.856;2023-03-31T04:41:01;99503.44;;;24.80
15544;BMP180;7873;52.230;12.856;2023-03-31T04:43:32;99503.63;;;24.85
15544;BMP180;7873;52.230;12.856;2023-03-31T04:46:00;99499.22;;;24.90
15544;BMP180;7873;52.230;12.856;2023-03-31T04:48:28;99492.34;;;24.94
15544;BMP180;7873;52.230;12.856;2023-03-31T04:50:55;99483.59;;;24.99
15544;BMP180;7873;52.230;12.856;2023-03-31T04:53:23;99484.22;;;25.01
15544;BMP180;7873;52.230;12.856;2023-03-31T04:55:51;99488.09;;;25.05
15544;BMP180;7873;52.230;12.856;2023-03-31T04:58:18;99489.75;;;25.06
15544;BMP180;7873;52.230;12.856;2023-03-31T05:00:50;99476.53;;;25.04
15544;BMP180;7873;52.230;12.856;2023-03-31T05:03:19;99471.44;;;24.96
15544;BMP180;7873;52.230;12.856;2023-03-31T05:05:47;99471.50;;;24.83
15544;BMP180;7873;52.230;12.856;2023-03-31T05:08:15;99473.59;;;24.81
15544;BMP180;7873;52.230;12.856;2023-03-31T05:10:42;99456.72;;;24.68
15544;BMP180;7873;52.230;12.856;2023-03-31T05:13:09;99442.06;;;24.64
15544;BMP180;7873;52.230;12.856;2023-03-31T05:15:36;99447.66;;;24.62
15544;BMP180;7873;52.230;12.856;2023-03-31T05:18:05;99447.03;;;24.60
15544;BMP180;7873;52.230;12.856;2023-03-31T05:20:31;99445.22;;;24.54
15544;BMP180;7873;52.230;12.856;2023-03-31T05:22:58;99444.19;;;24.49
15544;BMP180;7873;52.230;12.856;2023-03-31T05:25:25;99431.97;;;24.46
15544;BMP180;7873;52.230;12.856;2023-03-31T05:27:57;99434.69;;;24.46
15544;BMP180;7873;52.230;12.856;2023-03-31T05:30:25;99421.66;;;24.43
15544;BMP180;7873;52.230;12.856;2023-03-31T05:32:52;99421.66;;;24.43
15544;BMP180;7873;52.230;12.856;2023-03-31T05:35:20;99415.69;;;24.41
15544;BMP180;7873;52.230;12.856;2023-03-31T05:37:47;99417.75;;;24.39
15544;BMP180;7873;52.230;12.856;2023-03-31T05:40:13;99407.22;;;24.38
15544;BMP180;7873;52.230;12.856;2023-03-31T05:42:40;99406.41;;;24.37
15544;BMP180;7873;52.230;12.856;2023-03-31T05:45:07;99404.13;;;24.34
15544;BMP180;7873;52.230;12.856;2023-03-31T05:47:34;99398.97;;;24.33
15544;BMP180;7873;52.230;12.856;2023-03-31T05:50:01;99400.84;;;24.32
15544;BMP180;7873;52.230;12.856;2023-03-31T05:52:33;99389.47;;;24.30
15544;BMP180;7873;52.230;12.856;2023-03-31T05:55:00;99380.56;;;24.30
15544;BMP180;7873;52.230;12.856;2023-03-31T05:57:27;99387.00;;;24.29
15544;BMP180;7873;52.230;12.856;2023-03-31T05:59:53;99381.84;;;24.27
15544;BMP180;7873;52.230;12.856;2023-03-31T06:02:20;99379.16;;;24.27
15544;BMP180;7873;52.230;12.856;2023-03-31T06:04:47;99377.50;;;24.26
15544;BMP180;7873;52.230;12.856;2023-03-31T06:07:14;99367.56;;;24.27
15544;BMP180;7873;52.230;12.856;2023-03-31T06:09:44;99361.56;;;24.25
15544;BMP180;7873;52.230;12.856;2023-03-31T06:12:11;99354.56;;;24.24
15544;BMP180;7873;52.230;12.856;2023-03-31T06:14:37;99356.19;;;24.25
15544;BMP180;7873;52.230;12.856;2023-03-31T06:17:04;99361.38;;;24.26
15544;BMP180;7873;52.230;12.856;2023-03-31T06:19:31;99357.84;;;24.26
15544;BMP180;7873;52.230;12.856;2023-03-31T06:21:57;99362.63;;;24.24
15544;BMP180;7873;52.230;12.856;2023-03-31T06:24:24;99354.56;;;24.24
15544;BMP180;7873;52.230;12.856;2023-03-31T06:26:52;99349.38;;;24.22
15544;BMP180;7873;52.230;12.856;2023-03-31T06:29:19;99341.31;;;24.22
15544;BMP180;7873;52.230;12.856;2023-03-31T06:31:45;99344.00;;;24.22
15544;BMP180;7873;52.230;12.856;2023-03-31T06:34:12;99343.38;;;24.20
15544;BMP180;7873;52.230;12.856;2023-03-31T06:36:39;99347.72;;;24.21
15544;BMP180;7873;52.230;12.856;2023-03-31T06:39:06;99347.72;;;24.21
15544;BMP180;7873;52.230;12.856;2023-03-31T06:41:33;99346.09;;;24.20
15544;BMP180;7873;52.230;12.856;2023-03-31T06:44:01;99343.63;;;24.19
15544;BMP180;7873;52.230;12.856;2023-03-31T06:46:27;99339.06;;;24.19
15544;BMP180;7873;52.230;12.856;2023-03-31T06:48:54;99330.38;;;24.17
15544;BMP180;7873;52.230;12.856;2023-03-31T06:51:20;99328.53;;;24.18
15544;BMP180;7873;52.230;12.856;2023-03-31T06:53:47;99331.44;;;24.16
15544;BMP180;7873;52.230;12.856;2023-03-31T06:56:14;99330.38;;;24.17
15544;BMP180;7873;52.230;12.856;2023-03-31T06:58:41;99319.84;;;24.16
15544;BMP180;7873;52.230;12.856;2023-03-31T07:01:09;99317.97;;;24.16
15544;BMP180;7873;52.230;12.856;2023-03-31T07:03:36;99315.28;;;24.16
15544;BMP180;7873;52.230;12.856;2023-03-31T07:06:03;99312.59;;;24.16
15544;BMP180;7873;52.230;12.856;2023-03-31T07:08:30;99313.66;;;24.15
15544;BMP180;7873;52.230;12.856;2023-03-31T07:10:58;99318.22;;;24.15
15544;BMP180;7873;52.230;12.856;2023-03-31T07:13:25;99318.81;;;24.17
15544;BMP180;7873;52.230;12.856;2023-03-31T07:15:52;99316.13;;;24.17
15544;BMP180;7873;52.230;12.856;2023-03-31T07:18:21;99312.41;;;24.18
15544;BMP180;7873;52.230;12.856;2023-03-31T07:20:50;99302.44;;;24.18
15544;BMP180;7873;52.230;12.856;2023-03-31T07:23:17;99313.19;;;24.18
15544;BMP180;7873;52.230;12.856;2023-03-31T07:25:45;99311.34;;;24.19
15544;BMP180;7873;52.230;12.856;2023-03-31T07:28:12;99304.94;;;24.20
15544;BMP180;7873;52.230;12.856;2023-03-31T07:30:39;99309.47;;;24.19
15544;BMP180;7873;52.230;12.856;2023-03-31T07:33:06;99302.44;;;24.18
15544;BMP180;7873;52.230;12.856;2023-03-31T07:35:38;99307.81;;;24.18
15544;BMP180;7873;52.230;12.856;2023-03-31T07:38:07;99315.91;;;24.18
15544;BMP180;7873;52.230;12.856;2023-03-31T07:40:34;99312.59;;;24.16
15544;BMP180;7873;52.230;12.856;2023-03-31T07:43:00;99309.91;;;24.16
15544;BMP180;7873;52.230;12.856;2023-03-31T07:45:27;99296.69;;;24.15
15544;BMP180;7873;52.230;12.856;2023-03-31T07:47:54;99295.06;;;24.14
15544;BMP180;7873;52.230;12.856;2023-03-31T07:50:21;99294.22;;;24.13
15544;BMP180;7873;52.230;12.856;2023-03-31T07:52:49;99290.91;;;24.11
15544;BMP180;7873;52.230;12.856;2023-03-31T07:55:17;99290.91;;;24.11
15544;BMP180;7873;52.230;12.856;2023-03-31T07:57:44;99285.53;;;24.11
15544;BMP180;7873;52.230;12.856;2023-03-31T08:00:13;99283.66;;;24.12
15544;BMP180;7873;52.230;12.856;2023-03-31T08:02:41;99276.44;;;24.12
15544;BMP180;7873;52.230;12.856;2023-03-31T08:05:09;99274.34;;;24.14
15544;BMP180;7873;52.230;12.856;2023-03-31T08:07:37;99274.56;;;24.13
15544;BMP180;7873;52.230;12.856;2023-03-31T08:10:07;99277.03;;;24.14
15544;BMP180;7873;52.230;12.856;2023-03-31T08:12:34;99265.47;;;24.14
15544;BMP180;7873;52.230;12.856;2023-03-31T08:15:02;99254.09;;;24.12
15544;BMP180;7873;52.230;12.856;2023-03-31T08:17:29;99248.69;;;24.12
15544;BMP180;7873;52.230;12.856;2023-03-31T08:19:55;99238.19;;;24.10
15544;BMP180;7873;52.230;12.856;2023-03-31T08:22:22;99229.06;;;24.11
15544;BMP180;7873;52.230;12.856;2023-03-31T08:24:49;99228.22;;;24.11
15544;BMP180;7873;52.230;12.856;2023-03-31T08:27:17;99237.13;;;24.11
15544;BMP180;7873;52.230;12.856;2023-03-31T08:29:43;99224.75;;;24.10
15544;BMP180;7873;52.230;12.856;2023-03-31T08:32:10;99222.06;;;24.10
15544;BMP180;7873;52.230;12.856;2023-03-31T08:34:37;99232.81;;;24.10
15544;BMP180;7873;52.230;12.856;2023-03-31T08:37:07;99230.13;;;24.10
15544;BMP180;7873;52.230;12.856;2023-03-31T08:39:33;99218.53;;;24.10
15544;BMP180;7873;52.230;12.856;2023-03-31T08:42:04;99224.75;;;24.10
15544;BMP180;7873;52.230;12.856;2023-03-31T08:44:36;99214.19;;;24.09
15544;BMP180;7873;52.230;12.856;2023-03-31T08:47:06;99228.47;;;24.09
15544;BMP180;7873;52.230;12.856;2023-03-31T08:49:40;99216.28;;;24.07
15544;BMP180;7873;52.230;12.856;2023-03-31T08:52:11;99216.06;;;24.08
15544;BMP180;7873;52.230;12.856;2023-03-31T08:54:41;99210.69;;;24.08
15544;BMP180;7873;52.230;12.856;2023-03-31T08:57:14;99213.38;;;24.08
15544;BMP180;7873;52.230;12.856;2023-03-31T08:59:43;99211.75;;;24.07
15544;BMP180;7873;52.230;12.856;2023-03-31T09:02:18;99202.47;;;24.03
15544;BMP180;7873;52.230;12.856;2023-03-31T09:05:17;99209.50;;;24.04
15544;BMP180;7873;52.230;12.856;2023-03-31T09:07:53;99215.06;;;24.03
15544;BMP180;7873;52.230;12.856;2023-03-31T09:10:33;99202.69;;;24.02
15544;BMP180;7873;52.230;12.856;2023-03-31T09:13:06;99210.75;;;24.02
15544;BMP180;7873;52.230;12.856;2023-03-31T09:15:39;99203.72;;;24.01
15544;BMP180;7873;52.230;12.856;2023-03-31T09:18:14;99206.63;;;23.99
15544;BMP180;7873;52.230;12.856;2023-03-31T09:20:45;99202.06;;;24.00
15544;BMP180;7873;52.230;12.856;2023-03-31T09:23:22;99199.38;;;24.00
15544;BMP180;7873;52.230;12.856;2023-03-31T09:25:50;99199.38;;;24.00
15544;BMP180;7873;52.230;12.856;2023-03-31T09:28:19;99190.47;;;23.99
15544;BMP180;7873;52.230;12.856;2023-03-31T09:30:48;99190.72;;;23.98
15544;BMP180;7873;52.230;12.856;2023-03-31T09:33:17;99190.47;;;23.99
15544;BMP180;7873;52.230;12.856;2023-03-31T09:35:44;99181.63;;;23.99
15544;BMP180;7873;52.230;12.856;2023-03-31T09:38:13;99172.72;;;23.98
15544;BMP180;7873;52.230;12.856;2023-03-31T09:40:40;99178.91;;;23.99
15544;BMP180;7873;52.230;12.856;2023-03-31T09:43:16;99170.03;;;23.98
15544;BMP180;7873;52.230;12.856;2023-03-31T09:45:44;99162.78;;;23.99
15544;BMP180;7873;52.230;12.856;2023-03-31T09:48:15;99157.41;;;23.99
15544;BMP180;7873;52.230;12.856;2023-03-31T09:50:45;99143.13;;;23.98
15544;BMP180;7873;52.230;12.856;2023-03-31T09:53:18;99145.81;;;23.98
15544;BMP180;7873;52.230;12.856;2023-03-31T09:55:50;99143.38;;;23.97
15544;BMP180;7873;52.230;12.856;2023-03-31T09:58:18;99148.75;;;23.97
15544;BMP180;7873;52.230;12.856;2023-03-31T10:00:56;99139.03;;;23.96
15544;BMP180;7873;52.230;12.856;2023-03-31T10:03:25;99132.03;;;23.95
15544;BMP180;7873;52.230;12.856;2023-03-31T10:05:55;99132.81;;;23.95
15544;BMP180;7873;52.230;12.856;2023-03-31T10:08:26;99123.13;;;23.94
15544;BMP180;7873;52.230;12.856;2023-03-31T10:10:56;99124.16;;;23.93
15544;BMP180;7873;52.230;12.856;2023-03-31T10:13:24;99117.97;;;23.93
15544;BMP180;7873;52.230;12.856;2023-03-31T10:16:00;99120.06;;;23.91
15544;BMP180;7873;52.230;12.856;2023-03-31T10:18:33;99108.28;;;23.92
15544;BMP180;7873;52.230;12.856;2023-03-31T10:21:02;99115.28;;;23.93
15544;BMP180;7873;52.230;12.856;2023-03-31T10:23:30;99102.91;;;23.92
15544;BMP180;7873;52.230;12.856;2023-03-31T10:25:57;99100.81;;;23.94
15544;BMP180;7873;52.230;12.856;2023-03-31T10:28:24;99091.09;;;23.93
15544;BMP180;7873;52.230;12.856;2023-03-31T10:30:53;99086.78;;;23.92
15544;BMP180;7873;52.230;12.856;2023-03-31T10:33:23;99079.50;;;23.92
15544;BMP180;7873;52.230;12.856;2023-03-31T10:35:55;99074.38;;;23.91
15544;BMP180;7873;52.230;12.856;2023-03-31T10:38:25;99070.00;;;23.90
15544;BMP180;7873;52.230;12.856;2023-03-31T10:40:54;99071.69;;;23.91
15544;BMP180;7873;52.230;12.856;2023-03-31T10:43:25;99067.31;;;23.90
15544;BMP180;7873;52.230;12.856;2023-03-31T10:45:53;99061.59;;;23.86
15544;BMP180;7873;52.230;12.856;2023-03-31T10:48:24;99064.50;;;23.85
15544;BMP180;7873;52.230;12.856;2023-03-31T10:50:52;99064.72;;;23.83
15544;BMP180;7873;52.230;12.856;2023-03-31T10:53:20;99062.03;;;23.83
15544;BMP180;7873;52.230;12.856;2023-03-31T10:56:02;99058.31;;;23.84
15544;BMP180;7873;52.230;12.856;2023-03-31T10:58:59;99045.91;;;23.83
15544;BMP180;7873;52.230;12.856;2023-03-31T11:01:37;99039.06;;;23.81
15544;BMP180;7873;52.230;12.856;2023-03-31T11:04:28;99037.25;;;23.82
15544;BMP180;7873;52.230;12.856;2023-03-31T11:07:03;99022.16;;;23.80
15544;BMP180;7873;52.230;12.856;2023-03-31T11:09:43;99021.31;;;23.80
15544;BMP180;7873;52.230;12.856;2023-03-31T11:12:17;99024.00;;;23.80
15544;BMP180;7873;52.230;12.856;2023-03-31T11:14:57;99015.75;;;23.82
15544;BMP180;7873;52.230;12.856;2023-03-31T11:17:32;99013.25;;;23.80
15544;BMP180;7873;52.230;12.856;2023-03-31T11:20:12;99011.19;;;23.82
15544;BMP180;7873;52.230;12.856;2023-03-31T11:22:44;99014.72;;;23.83
15544;BMP180;7873;52.230;12.856;2023-03-31T11:25:27;99009.34;;;23.83
15544;BMP180;7873;52.230;12.856;2023-03-31T11:28:20;99005.00;;;23.82
15544;BMP180;7873;52.230;12.856;2023-03-31T11:30:57;98999.81;;;23.80
15544;BMP180;7873;52.230;12.856;2023-03-31T11:33:42;98994.66;;;23.78
15544;BMP180;7873;52.230;12.856;2023-03-31T11:36:22;98989.28;;;23.78
15544;BMP180;7873;52.230;12.856;2023-03-31T11:38:59;98985.19;;;23.76
15544;BMP180;7873;52.230;12.856;2023-03-31T11:41:33;98981.44;;;23.77
15544;BMP180;7873;52.230;12.856;2023-03-31T11:44:02;98978.16;;;23.75
15544;BMP180;7873;52.230;12.856;2023-03-31T11:46:36;98975.69;;;23.73
15544;BMP180;7873;52.230;12.856;2023-03-31T11:49:05;98975.69;;;23.73
15544;BMP180;7873;52.230;12.856;2023-03-31T11:51:41;98974.63;;;23.74
15544;BMP180;7873;52.230;12.856;2023-03-31T11:54:15;98961.19;;;23.74
15544;BMP180;7873;52.230;12.856;2023-03-31T11:56:45;98966.56;;;23.74
15544;BMP180;7873;52.230;12.856;2023-03-31T11:59:14;98957.47;;;23.75
15544;BMP180;7873;52.230;12.856;2023-03-31T12:01:47;98951.28;;;23.75
15544;BMP180;7873;52.230;12.856;2023-03-31T12:04:24;98962.03;;;23.75
15544;BMP180;7873;52.230;12.856;2023-03-31T12:06:57;98954.50;;;23.66
15544;BMP180;7873;52.230;12.856;2023-03-31T12:09:29;98950.38;;;23.45
15544;BMP180;7873;52.230;12.856;2023-03-31T12:12:04;98953.63;;;23.29
15544;BMP180;7873;52.230;12.856;2023-03-31T12:14:35;98956.88;;;23.07
15544;BMP180;7873;52.230;12.856;2023-03-31T12:17:07;98956.06;;;23.06
15544;BMP180;7873;52.230;12.856;2023-03-31T12:19:42;98955.31;;;22.99
15544;BMP180;7873;52.230;12.856;2023-03-31T12:22:14;98950.47;;;22.83
15544;BMP180;7873;52.230;12.856;2023-03-31T12:24:42;98955.59;;;22.85
15544;BMP180;7873;52.230;12.856;2023-03-31T12:27:13;98946.59;;;22.79
15544;BMP180;7873;52.230;12.856;2023-03-31T12:29:44;98953.31;;;22.64
15544;BMP180;7873;52.230;12.856;2023-03-31T12:32:14;98951.41;;;22.71
15544;BMP180;7873;52.230;12.856;2023-03-31T12:34:46;98955.13;;;22.70
15544;BMP180;7873;52.230;12.856;2023-03-31T12:37:46;98941.09;;;22.68
15544;BMP180;7873;52.230;12.856;2023-03-31T12:40:25;98945.28;;;22.64
15544;BMP180;7873;52.230;12.856;2023-03-31T12:43:16;98942.38;;;22.59
15544;BMP180;7873;52.230;12.856;2023-03-31T12:45:52;98940.97;;;22.56
15544;BMP180;7873;52.230;12.856;2023-03-31T12:48:39;98946.53;;;22.55
15544;BMP180;7873;52.230;12.856;2023-03-31T12:51:18;98942.06;;;22.49
15544;BMP180;7873;52.230;12.856;2023-03-31T12:53:59;98944.94;;;22.47
15544;BMP180;7873;52.230;12.856;2023-03-31T12:57:04;98943.72;;;22.37
15544;BMP180;7873;52.230;12.856;2023-03-31T12:59:39;98951.19;;;22.41
15544;BMP180;7873;52.230;12.856;2023-03-31T13:02:22;98945.03;;;22.28
15544;BMP180;7873;52.230;12.856;2023-03-31T13:04:49;98941.38;;;22.16
15544;BMP180;7873;52.230;12.856;2023-03-31T13:07:35;98946.28;;;21.82
15544;BMP180;7873;52.230;12.856;2023-03-31T13:10:24;98946.50;;;21.74
15544;BMP180;7873;52.230;12.856;2023-03-31T13:13:11;98949.00;;;21.69
15544;BMP180;7873;52.230;12.856;2023-03-31T13:15:49;98943.41;;;21.77
15544;BMP180;7873;52.230;12.856;2023-03-31T13:18:19;98942.81;;;21.68
15544;BMP180;7873;52.230;12.856;2023-03-31T13:20:57;98935.38;;;21.77
15544;BMP180;7873;52.230;12.856;2023-03-31T13:23:24;98939.56;;;22.03
15544;BMP180;7873;52.230;12.856;2023-03-31T13:25:52;98936.00;;;22.16
15544;BMP180;7873;52.230;12.856;2023-03-31T13:28:30;98933.00;;;22.37
15544;BMP180;7873;52.230;12.856;2023-03-31T13:30:59;98931.66;;;22.59
15544;BMP180;7873;52.230;12.856;2023-03-31T13:33:40;98935.97;;;22.91
15544;BMP180;7873;52.230;12.856;2023-03-31T13:39:48;98920.81;;;23.63
15544;BMP180;7873;52.230;12.856;2023-03-31T13:42:35;98921.81;;;24.04
15544;BMP180;7873;52.230;12.856;2023-03-31T13:45:18;98906.75;;;24.44
15544;BMP180;7873;52.230;12.856;2023-03-31T13:48:03;98901.34;;;24.74
15544;BMP180;7873;52.230;12.856;2023-03-31T13:53:39;98907.72;;;25.02
15544;BMP180;7873;52.230;12.856;2023-03-31T13:56:24;98897.31;;;25.29
15544;BMP180;7873;52.230;12.856;2023-03-31T14:02:19;98895.97;;;25.77
15544;BMP180;7873;52.230;12.856;2023-03-31T14:05:23;98902.72;;;26.02
15544;BMP180;7873;52.230;12.856;2023-03-31T14:07:54;98888.38;;;26.13
15544;BMP180;7873;52.230;12.856;2023-03-31T14:10:27;98889.63;;;26.22
15544;BMP180;7873;52.230;12.856;2023-03-31T14:13:09;98885.13;;;26.28
15544;BMP180;7873;52.230;12.856;2023-03-31T14:15:38;98878.31;;;26.37
15544;BMP180;7873;52.230;12.856;2023-03-31T14:18:06;98884.00;;;26.40
15544;BMP180;7873;52.230;12.856;2023-03-31T14:20:40;98876.63;;;26.47
15544;BMP180;7873;52.230;12.856;2023-03-31T14:23:20;98870.50;;;26.68
15544;BMP180;7873;52.230;12.856;2023-03-31T14:25:53;98855.19;;;26.90
15544;BMP180;7873;52.230;12.856;2023-03-31T14:28:34;98856.72;;;27.03
15544;BMP180;7873;52.230;12.856;2023-03-31T14:31:10;98864.19;;;27.12
15544;BMP180;7873;52.230;12.856;2023-03-31T14:33:45;98866.63;;;27.30
15544;BMP180;7873;52.230;12.856;2023-03-31T14:36:19;98873.16;;;27.34
15544;BMP180;7873;52.230;12.856;2023-03-31T14:38:50;98879.06;;;27.31
15544;BMP180;7873;52.230;12.856;2023-03-31T14:41:18;98873.56;;;27.42
15544;BMP180;7873;52.230;12.856;2023-03-31T14:43:47;98872.06;;;27.51
15544;BMP180;7873;52.230;12.856;2023-03-31T14:46:19;98872.25;;;27.66
15544;BMP180;7873;52.230;12.856;2023-03-31T14:48:48;98869.44;;;27.78
15544;BMP180;7873;52.230;12.856;2023-03-31T14:51:18;98866.19;;;27.97
15544;BMP180;7873;52.230;12.856;2023-03-31T14:53:54;98868.44;;;28.05